Nyala, Nevada Weather observations

Data are for observation ending at time listed.
 Day   Time    Ave.   Ave.  Ave.  Vector   Max.   Stn.    Total    Solar   Ave.  
  of    of     Air    Rel.  Wind   Wind    Wind   Baro.  Precip.   Rad.    Soil  
Year   Day     Temp.  Hum.  Speed  Dir.    Gust   Pres.                    Temp. 
2014   (PST)    F      %     mph   deg.    mph     mb.     in.     W/m2     F   
------------------------------------------------------------------------------
 360   20:00   27.2    58    5.2    27      9.9    856     0.00       0    31.9
 360   21:00   26.6    62    2.4     2      7.0    857     0.00       0    31.8
 360   22:00   25.2    67    1.2    60      2.9    857     0.00       0    31.8
 360   23:00   25.2    68    2.7    29      6.2    858     0.00       0    31.7
 361    0:00   24.7    67    3.0    23      6.6    858     0.00       0    31.7
 361    1:00   23.9    68    3.0    31      6.9    858     0.00       0    31.6
 361    2:00   23.5    69    4.0    43      9.5    859     0.00       0    31.5
 361    3:00   23.3    68    4.3    37      7.6    859     0.00       0    31.4
 361    4:00   23.5    66    5.1    43     10.8    860     0.00       0    31.4
 361    5:00   22.2    67    3.7    36      6.9    860     0.00       0    31.3
 361    6:00   15.0    82    1.7   224      4.7    860     0.00       0    31.1
 361    7:00   13.4    86    1.4   200      5.2    860     0.00       0    30.9
 361    8:00   13.4    87    2.0   191      3.7    861     0.00       5    30.6
 361    9:00   18.2    80    1.4   196      3.5    861     0.00      75    30.3
 361   10:00   24.4    66    1.7   225      5.0    862     0.00     156    30.2
 361   11:00   28.2    56    1.2   243      4.8    861     0.00     199    30.2
 361   12:00   31.1    47    1.4   293      4.6    860     0.00     220    30.3
 361   13:00   33.5    42    1.2   232      6.5    859     0.00     212    30.5
 361   14:00   34.0    42    1.8   264      8.0    859     0.00     186    30.6
 361   15:00   33.7    42    1.7     3      4.7    858     0.00     126    30.8
 361   16:00   32.1    44    1.3   317      4.5    859     0.00      52    30.8
 361   17:00   28.4    55    1.0    27      2.8    859     0.00       3    30.9
 361   18:00   24.6    66    1.4   132      3.9    859     0.00       0    30.8
 361   19:00   23.1    70    2.1   128      4.5    859     0.00       0    30.7

Return to Nyala, Nevada graphs page.


Western Regional Climate Center,wrcc@dri.edu